createdAt,value
2023-05-08T00:00:59.612Z,91627.78
2023-05-08T00:03:27.137Z,91632.97
2023-05-08T00:05:57.093Z,91629.88
2023-05-08T00:08:23.780Z,91618.91
2023-05-08T00:10:50.741Z,91618.13
2023-05-08T00:13:17.466Z,91623.50
2023-05-08T00:15:44.198Z,91619.28
2023-05-08T00:18:10.890Z,91610.75
2023-05-08T00:20:37.997Z,91607.91
2023-05-08T00:23:05.043Z,91614.50
2023-05-08T00:25:32.141Z,91614.81
2023-05-08T00:27:59.458Z,91608.47
2023-05-08T00:30:26.781Z,91620.97
2023-05-08T00:32:53.876Z,91612.13
2023-05-08T00:35:22.599Z,91617.66
2023-05-08T00:37:49.279Z,91613.25
2023-05-08T00:40:16.109Z,91608.81
2023-05-08T00:42:42.880Z,91610.69
2023-05-08T00:45:09.991Z,91606.81
2023-05-08T00:47:36.852Z,91612.88
2023-05-08T00:50:03.862Z,91611.16
2023-05-08T00:52:33.117Z,91614.47
2023-05-08T00:55:02.422Z,91619.47
2023-05-08T00:57:32.497Z,91616.56
2023-05-08T01:00:02.015Z,91602.56
2023-05-08T01:02:31.709Z,91624.03
2023-05-08T01:04:59.112Z,91614.69
2023-05-08T01:07:26.022Z,91612.59
2023-05-08T01:09:53.263Z,91612.59
2023-05-08T01:12:47.150Z,91614.41
2023-05-08T01:15:44.018Z,91614.47
2023-05-08T01:18:18.366Z,91614.81
2023-05-08T01:21:13.471Z,91606.41
2023-05-08T01:24:11.954Z,91613.28
2023-05-08T01:26:53.703Z,91606.69
2023-05-08T01:29:20.278Z,91602.75
2023-05-08T01:32:10.179Z,91598.44
2023-05-08T01:34:44.757Z,91603.31
2023-05-08T01:37:27.708Z,91606.97
2023-05-08T01:40:40.558Z,91599.25
2023-05-08T01:43:30.049Z,91607.28
2023-05-08T01:45:59.412Z,91611.81
2023-05-08T01:48:34.227Z,91603.97
2023-05-08T01:51:08.552Z,91608.59
2023-05-08T01:53:41.223Z,91606.25
2023-05-08T01:56:14.508Z,91593.19
2023-05-08T01:58:42.987Z,91607.16
2023-05-08T02:01:12.873Z,91610.09
2023-05-08T02:03:43.359Z,91601.94
2023-05-08T02:06:12.961Z,91606.78
2023-05-08T02:08:41.689Z,91603.75
2023-05-08T02:11:11.633Z,91602.50
2023-05-08T02:13:39.239Z,91602.38
2023-05-08T02:16:08.340Z,91605.41
2023-05-08T02:18:37.564Z,91609.44
2023-05-08T02:21:06.235Z,91597.59
2023-05-08T02:23:34.691Z,91599.94
2023-05-08T02:26:04.695Z,91599.66
2023-05-08T02:28:33.449Z,91594.78
2023-05-08T02:31:01.412Z,91604.63
2023-05-08T02:33:30.085Z,91605.44
2023-05-08T02:35:57.899Z,91605.28
2023-05-08T02:38:26.347Z,91602.75
2023-05-08T02:41:00.962Z,91601.81
2023-05-08T02:43:28.263Z,91600.75
2023-05-08T02:46:03.814Z,91591.94
2023-05-08T02:48:38.333Z,91595.69
2023-05-08T02:51:16.954Z,91601.75
2023-05-08T02:53:53.092Z,91599.72
2023-05-08T02:56:39.213Z,91599.00
2023-05-08T02:59:23.027Z,91605.97
2023-05-08T03:01:54.336Z,91597.03
2023-05-08T03:04:37.842Z,91598.28
2023-05-08T03:07:05.977Z,91595.47
2023-05-08T03:09:48.986Z,91600.06
2023-05-08T03:12:20.862Z,91592.91
2023-05-08T03:15:00.214Z,91583.16
2023-05-08T03:17:28.814Z,91591.63
2023-05-08T03:20:00.948Z,91592.78
2023-05-08T03:22:30.361Z,91593.63
2023-05-08T03:24:59.838Z,91597.38
2023-05-08T03:27:29.476Z,91607.84
2023-05-08T03:29:58.047Z,91605.72
2023-05-08T03:32:27.559Z,91602.09
2023-05-08T03:34:58.686Z,91599.53
2023-05-08T03:37:27.594Z,91603.88
2023-05-08T03:39:55.963Z,91603.88
2023-05-08T03:42:24.431Z,91613.03
2023-05-08T03:44:52.340Z,91609.44
2023-05-08T03:47:21.084Z,91599.38
2023-05-08T03:49:49.270Z,91612.94
2023-05-08T03:52:16.487Z,91601.00
2023-05-08T03:54:43.505Z,91596.25
2023-05-08T03:57:11.306Z,91603.16
2023-05-08T03:59:49.924Z,91599.13
2023-05-08T04:02:34.845Z,91602.13
2023-05-08T04:05:21.011Z,91597.72
2023-05-08T04:07:54.908Z,91606.03
2023-05-08T04:10:34.046Z,91604.66
2023-05-08T04:13:27.357Z,91607.69
2023-05-08T04:16:27.851Z,91609.13
2023-05-08T04:19:01.248Z,91602.38
2023-05-08T04:21:29.872Z,91604.75
2023-05-08T04:23:58.442Z,91608.94
2023-05-08T04:26:25.351Z,91609.81
2023-05-08T04:28:53.064Z,91607.25
2023-05-08T04:31:20.015Z,91602.47
2023-05-08T04:33:47.351Z,91603.69
2023-05-08T04:36:14.582Z,91601.88
2023-05-08T04:38:41.741Z,91603.22
2023-05-08T04:41:09.084Z,91603.28
2023-05-08T04:43:36.829Z,91601.94
2023-05-08T04:46:05.843Z,91610.97
2023-05-08T04:48:34.027Z,91619.31
2023-05-08T04:51:01.100Z,91619.03
2023-05-08T04:53:27.855Z,91613.00
2023-05-08T04:55:54.591Z,91613.16
2023-05-08T04:58:21.322Z,91614.31
2023-05-08T05:00:48.806Z,91605.56
2023-05-08T05:03:15.714Z,91600.78
2023-05-08T05:05:42.677Z,91601.44
2023-05-08T05:08:09.354Z,91599.22
2023-05-08T05:10:36.226Z,91598.88
2023-05-08T05:13:02.930Z,91597.09
2023-05-08T05:15:29.642Z,91591.94
2023-05-08T05:17:56.537Z,91594.19
2023-05-08T05:20:23.277Z,91590.16
2023-05-08T05:22:50.388Z,91585.28
2023-05-08T05:25:17.157Z,91588.81
2023-05-08T05:27:44.328Z,91578.91
2023-05-08T05:30:12.631Z,91585.09
2023-05-08T05:32:39.668Z,91577.25
2023-05-08T05:35:06.957Z,91571.88
2023-05-08T05:37:34.130Z,91568.25
2023-05-08T05:40:00.952Z,91575.84
2023-05-08T05:42:28.234Z,91569.25
2023-05-08T05:44:56.766Z,91569.13
2023-05-08T05:47:23.664Z,91560.06
2023-05-08T05:49:50.427Z,91554.72
2023-05-08T05:52:17.108Z,91553.41
2023-05-08T05:54:43.815Z,91552.53
2023-05-08T05:57:10.510Z,91547.09
2023-05-08T05:59:37.476Z,91548.63
2023-05-08T06:02:04.239Z,91535.50
2023-05-08T06:04:31.713Z,91545.47
2023-05-08T06:06:58.481Z,91535.72
2023-05-08T06:09:25.329Z,91535.50
2023-05-08T06:11:52.039Z,91537.56
2023-05-08T06:14:20.429Z,91533.13
2023-05-08T06:16:47.142Z,91526.47
2023-05-08T06:19:13.890Z,91518.53
2023-05-08T06:21:40.594Z,91514.66
2023-05-08T06:24:07.911Z,91524.88
2023-05-08T06:26:35.081Z,91521.53
2023-05-08T06:29:01.893Z,91518.34
2023-05-08T06:31:29.171Z,91520.06
2023-05-08T06:33:56.202Z,91506.09
2023-05-08T06:36:22.990Z,91518.34
2023-05-08T06:38:49.644Z,91507.06
2023-05-08T06:41:16.686Z,91506.13
2023-05-08T06:43:43.325Z,91502.00
2023-05-08T06:46:10.133Z,91503.47
2023-05-08T06:48:36.882Z,91498.63
2023-05-08T06:51:03.770Z,91497.34
2023-05-08T06:53:31.023Z,91506.16
2023-05-08T06:55:58.914Z,91502.75
2023-05-08T06:58:25.613Z,91502.44
2023-05-08T07:00:52.808Z,91496.81
2023-05-08T07:03:19.416Z,91482.34
2023-05-08T07:05:46.518Z,91495.78
2023-05-08T07:08:13.200Z,91488.81
2023-05-08T07:10:39.871Z,91491.56
2023-05-08T07:13:06.809Z,91494.53
2023-05-08T07:15:33.614Z,91491.56
2023-05-08T07:18:00.778Z,91486.25
2023-05-08T07:20:27.926Z,91478.44
2023-05-08T07:22:54.704Z,91479.88
2023-05-08T07:25:21.328Z,91475.38
2023-05-08T07:27:47.978Z,91477.19
2023-05-08T07:30:15.106Z,91476.78
2023-05-08T07:32:41.832Z,91484.94
2023-05-08T07:35:11.309Z,91481.91
2023-05-08T07:37:39.537Z,91475.16
2023-05-08T07:40:06.846Z,91478.34
2023-05-08T07:42:39.710Z,91469.72
2023-05-08T07:45:08.857Z,91476.63
2023-05-08T07:47:35.615Z,91480.84
2023-05-08T07:50:03.508Z,91481.09
2023-05-08T07:52:30.245Z,91473.28
2023-05-08T07:54:56.912Z,91470.09
2023-05-08T07:57:23.878Z,91466.09
2023-05-08T07:59:50.673Z,91478.13
2023-05-08T08:02:17.412Z,91466.91
2023-05-08T08:04:44.124Z,91467.56
2023-05-08T08:07:10.825Z,91458.47
2023-05-08T08:09:37.441Z,91457.25
2023-05-08T08:12:04.115Z,91452.47
2023-05-08T08:14:30.762Z,91466.75
2023-05-08T08:16:57.952Z,91455.78
2023-05-08T08:19:24.762Z,91455.91
2023-05-08T08:21:52.969Z,91448.63
2023-05-08T08:24:19.840Z,91449.38
2023-05-08T08:26:46.502Z,91453.97
2023-05-08T08:29:13.319Z,91459.31
2023-05-08T08:31:40.111Z,91447.66
2023-05-08T08:34:07.699Z,91448.81
2023-05-08T08:36:34.634Z,91453.34
2023-05-08T08:39:01.804Z,91446.41
2023-05-08T08:41:28.521Z,91443.66
2023-05-08T08:43:55.534Z,91445.28
2023-05-08T08:46:28.104Z,91445.28
2023-05-08T08:48:56.562Z,91444.66
2023-05-08T08:51:32.010Z,91439.22
2023-05-08T08:54:10.255Z,91440.59
2023-05-08T08:56:39.621Z,91430.75
2023-05-08T08:59:07.486Z,91424.50
2023-05-08T09:01:39.055Z,91428.19
2023-05-08T09:04:06.100Z,91431.50
2023-05-08T09:06:37.704Z,91430.25
2023-05-08T09:09:05.615Z,91426.03
2023-05-08T09:11:37.528Z,91423.31
2023-05-08T09:14:11.129Z,91425.41
2023-05-08T09:16:38.216Z,91428.44
2023-05-08T09:19:04.928Z,91427.38
2023-05-08T09:21:33.392Z,91417.31
2023-05-08T09:24:04.929Z,91426.28
2023-05-08T09:26:39.782Z,91418.63
2023-05-08T09:29:16.181Z,91424.41
2023-05-08T09:31:46.057Z,91421.50
2023-05-08T09:34:24.816Z,91420.84
2023-05-08T09:36:51.975Z,91422.44
2023-05-08T09:39:26.050Z,91427.66
2023-05-08T09:42:03.458Z,91425.88
2023-05-08T09:44:45.241Z,91418.38
2023-05-08T09:47:20.668Z,91424.31
2023-05-08T09:50:02.856Z,91420.63
2023-05-08T09:52:30.920Z,91416.09
2023-05-08T09:54:59.404Z,91412.22
2023-05-08T09:57:27.583Z,91418.03
2023-05-08T10:00:12.415Z,91415.66
2023-05-08T10:02:42.056Z,91403.09
2023-05-08T10:05:32.945Z,91410.16
2023-05-08T10:08:17.817Z,91409.97
2023-05-08T10:10:44.615Z,91418.34
2023-05-08T10:13:11.882Z,91410.16
2023-05-08T10:15:41.988Z,91425.13
2023-05-08T10:18:09.523Z,91417.81
2023-05-08T10:20:45.160Z,91420.47
2023-05-08T10:23:17.322Z,91424.72
2023-05-08T10:25:46.676Z,91425.66
2023-05-08T10:28:59.299Z,91435.22
2023-05-08T10:31:28.578Z,91429.19
2023-05-08T10:33:56.894Z,91426.81
2023-05-08T10:36:24.207Z,91422.28
2023-05-08T10:38:51.873Z,91425.88
2023-05-08T10:41:19.607Z,91430.50
2023-05-08T10:43:47.278Z,91440.19
2023-05-08T10:46:26.754Z,91438.59
2023-05-08T10:49:23.567Z,91437.75
2023-05-08T10:52:12.451Z,91437.47
2023-05-08T10:54:54.172Z,91436.75
2023-05-08T10:57:21.534Z,91439.97
2023-05-08T10:59:48.180Z,91429.19
2023-05-08T11:02:28.754Z,91439.34
2023-05-08T11:05:16.708Z,91437.72
2023-05-08T11:07:54.989Z,91440.81
2023-05-08T11:10:22.291Z,91441.59
2023-05-08T11:12:51.372Z,91448.97
2023-05-08T11:15:36.617Z,91447.97
2023-05-08T11:18:06.015Z,91452.66
2023-05-08T11:20:55.826Z,91457.78
2023-05-08T11:23:29.479Z,91451.47
2023-05-08T11:26:03.185Z,91448.81
2023-05-08T11:28:38.023Z,91444.28
2023-05-08T11:31:06.220Z,91450.72
2023-05-08T11:33:34.702Z,91436.66
2023-05-08T11:36:13.368Z,91438.16
2023-05-08T11:38:41.475Z,91450.94
2023-05-08T11:41:08.943Z,91447.44
2023-05-08T11:43:38.580Z,91441.16
2023-05-08T11:46:15.072Z,91449.22
2023-05-08T11:48:42.274Z,91441.66
2023-05-08T11:51:09.875Z,91441.47
2023-05-08T11:53:37.708Z,91432.38
2023-05-08T11:56:04.865Z,91440.75
2023-05-08T11:58:31.713Z,91434.09
2023-05-08T12:00:58.427Z,91434.69
2023-05-08T12:03:25.891Z,91428.03
2023-05-08T12:05:56.310Z,91430.13
2023-05-08T12:08:23.250Z,91416.22
2023-05-08T12:10:51.946Z,91419.25
2023-05-08T12:13:23.483Z,91424.22
2023-05-08T12:15:55.984Z,91420.88
2023-05-08T12:18:24.017Z,91429.03
2023-05-08T12:20:58.707Z,91424.22
2023-05-08T12:23:27.049Z,91429.72
2023-05-08T12:25:55.383Z,91426.66
2023-05-08T12:28:23.060Z,91429.53
2023-05-08T12:30:50.539Z,91426.59
2023-05-08T12:33:18.690Z,91421.50
2023-05-08T12:35:45.736Z,91419.69
2023-05-08T12:38:12.438Z,91434.78
2023-05-08T12:40:44.451Z,91431.38
2023-05-08T12:43:11.914Z,91441.09
2023-05-08T12:45:40.465Z,91438.81
2023-05-08T12:48:12.131Z,91446.47
2023-05-08T12:50:43.855Z,91454.22
2023-05-08T12:53:12.322Z,91470.41
2023-05-08T12:55:40.691Z,91467.97
2023-05-08T12:58:15.712Z,91449.44
2023-05-08T13:00:47.044Z,91446.06
2023-05-08T13:03:28.853Z,91454.50
2023-05-08T13:05:57.521Z,91452.25
2023-05-08T13:08:38.866Z,91460.28
2023-05-08T13:11:06.723Z,91451.94
2023-05-08T13:13:35.366Z,91454.75
2023-05-08T13:16:06.712Z,91456.41
2023-05-08T13:18:36.223Z,91455.00
2023-05-08T13:21:03.779Z,91441.44
2023-05-08T13:23:30.656Z,91438.94
2023-05-08T13:25:57.737Z,91445.66
2023-05-08T13:28:24.439Z,91448.06
2023-05-08T13:30:51.913Z,91447.97
2023-05-08T13:33:18.530Z,91445.59
2023-05-08T13:35:45.674Z,91451.41
2023-05-08T13:38:12.423Z,91449.97
2023-05-08T13:40:39.070Z,91447.91
2023-05-08T13:43:05.759Z,91462.25
2023-05-08T13:45:33.136Z,91462.91
2023-05-08T13:47:59.989Z,91468.50
2023-05-08T13:50:26.713Z,91469.66
2023-05-08T13:52:54.916Z,91478.34
2023-05-08T13:55:23.309Z,91478.31
2023-05-08T13:57:50.931Z,91475.38
2023-05-08T14:00:18.417Z,91467.78
2023-05-08T14:02:45.371Z,91465.25
2023-05-08T14:05:12.397Z,91455.22
2023-05-08T14:07:39.350Z,91460.53
2023-05-08T14:10:06.540Z,91446.25
2023-05-08T14:12:36.516Z,91430.75
2023-05-08T14:15:06.724Z,91422.00
2023-05-08T14:17:33.781Z,91430.94
2023-05-08T14:20:00.610Z,91436.19
2023-05-08T14:22:27.312Z,91437.22
2023-05-08T14:24:54.165Z,91439.00
2023-05-08T14:27:20.974Z,91435.59
2023-05-08T14:29:48.035Z,91441.31
2023-05-08T14:32:14.649Z,91447.22
2023-05-08T14:34:41.351Z,91462.22
2023-05-08T14:37:08.049Z,91471.16
2023-05-08T14:39:34.821Z,91471.16
2023-05-08T14:42:21.528Z,91466.84
2023-05-08T14:44:49.667Z,91466.34
2023-05-08T14:47:16.430Z,91462.66
2023-05-08T14:49:43.294Z,91459.13
2023-05-08T14:52:10.854Z,91450.84
2023-05-08T14:54:37.720Z,91450.78
2023-05-08T14:57:04.699Z,91454.09
2023-05-08T14:59:31.416Z,91454.44
2023-05-08T15:01:58.081Z,91443.44
2023-05-08T15:04:24.814Z,91443.31
2023-05-08T15:06:51.588Z,91445.53
2023-05-08T15:09:18.271Z,91439.53
2023-05-08T15:11:44.945Z,91436.66
2023-05-08T15:14:11.704Z,91435.91
2023-05-08T15:16:38.479Z,91431.69
2023-05-08T15:19:05.334Z,91435.03
2023-05-08T15:21:34.897Z,91434.22
2023-05-08T15:24:01.549Z,91428.22
2023-05-08T15:26:28.147Z,91424.19
2023-05-08T15:28:54.786Z,91424.50
2023-05-08T15:31:21.499Z,91425.94
2023-05-08T15:33:48.442Z,91424.34
2023-05-08T15:36:15.639Z,91419.72
2023-05-08T15:38:44.049Z,91401.53
2023-05-08T15:41:15.164Z,91390.81
2023-05-08T15:43:43.099Z,91394.44
2023-05-08T15:46:10.136Z,91392.09
2023-05-08T15:48:36.967Z,91394.09
2023-05-08T15:51:03.780Z,91394.19
2023-05-08T15:53:30.585Z,91389.66
2023-05-08T15:55:57.477Z,91389.94
2023-05-08T15:58:24.794Z,91390.66
2023-05-08T16:00:51.842Z,91382.59
2023-05-08T16:03:19.306Z,91390.75
2023-05-08T16:05:46.296Z,91395.66
2023-05-08T16:08:13.791Z,91400.34
2023-05-08T16:10:41.436Z,91402.09
2023-05-08T16:13:08.869Z,91402.13
2023-05-08T16:15:35.759Z,91408.09
2023-05-08T16:18:03.064Z,91402.72
2023-05-08T16:20:30.564Z,91406.66
2023-05-08T16:22:58.359Z,91408.63
2023-05-08T16:25:25.853Z,91409.84
2023-05-08T16:27:52.724Z,91413.66
2023-05-08T16:30:19.707Z,91414.47
2023-05-08T16:32:46.593Z,91417.41
2023-05-08T16:35:14.072Z,91420.25
2023-05-08T16:37:41.063Z,91417.97
2023-05-08T16:40:08.896Z,91417.22
2023-05-08T16:42:36.253Z,91419.91
2023-05-08T16:45:04.736Z,91420.81
2023-05-08T16:47:31.450Z,91419.72
2023-05-08T16:49:58.408Z,91423.97
2023-05-08T16:52:25.105Z,91424.59
2023-05-08T16:54:52.241Z,91427.19
2023-05-08T16:57:19.416Z,91425.28
2023-05-08T16:59:46.053Z,91445.19
2023-05-08T17:02:18.543Z,91459.94
2023-05-08T17:04:47.332Z,91463.31
2023-05-08T17:07:15.317Z,91458.81
2023-05-08T17:09:42.100Z,91473.28
2023-05-08T17:12:09.247Z,91480.09
2023-05-08T17:14:39.257Z,91487.59
2023-05-08T17:17:06.502Z,91499.69
2023-05-08T17:19:33.250Z,91502.72
2023-05-08T17:22:00.204Z,91511.03
2023-05-08T17:24:27.260Z,91518.56
2023-05-08T17:26:54.018Z,91520.09
2023-05-08T17:29:20.754Z,91528.75
2023-05-08T17:31:48.106Z,91532.16
2023-05-08T17:34:14.864Z,91529.88
2023-05-08T17:36:41.598Z,91535.16
2023-05-08T17:39:08.540Z,91534.81
2023-05-08T17:41:35.405Z,91535.53
2023-05-08T17:44:02.055Z,91531.41
2023-05-08T17:46:28.716Z,91538.56
2023-05-08T17:48:55.492Z,91535.16
2023-05-08T17:51:22.213Z,91543.78
2023-05-08T17:53:48.887Z,91538.50
2023-05-08T17:56:20.416Z,91551.69
2023-05-08T17:58:47.170Z,91552.44
2023-05-08T18:01:13.896Z,91556.91
2023-05-08T18:03:41.212Z,91555.44
2023-05-08T18:06:08.172Z,91553.16
2023-05-08T18:08:34.874Z,91562.19
2023-05-08T18:11:01.804Z,91559.97
2023-05-08T18:13:28.498Z,91559.56
2023-05-08T18:15:55.577Z,91551.28
2023-05-08T18:18:22.277Z,91552.41
2023-05-08T18:20:48.984Z,91545.59
2023-05-08T18:23:16.229Z,91561.34
2023-05-08T18:25:42.957Z,91563.94
2023-05-08T18:28:09.662Z,91569.59
2023-05-08T18:30:38.218Z,91568.09
2023-05-08T18:33:06.313Z,91570.06
2023-05-08T18:35:32.996Z,91564.81
2023-05-08T18:37:59.625Z,91564.41
2023-05-08T18:40:26.383Z,91571.91
2023-05-08T18:42:52.966Z,91580.84
2023-05-08T18:45:19.831Z,91581.56
2023-05-08T18:47:46.628Z,91588.41
2023-05-08T18:50:13.513Z,91582.75
2023-05-08T18:52:40.894Z,91591.47
2023-05-08T18:55:08.040Z,91586.59
2023-05-08T18:57:34.705Z,91588.84
2023-05-08T19:00:01.402Z,91579.09
2023-05-08T19:02:28.269Z,91571.56
2023-05-08T19:04:54.972Z,91571.88
2023-05-08T19:07:21.594Z,91573.75
2023-05-08T19:09:48.323Z,91576.31
2023-05-08T19:12:15.081Z,91581.97
2023-05-08T19:14:49.132Z,91576.19
2023-05-08T19:17:16.021Z,91573.22
2023-05-08T19:19:42.703Z,91583.44
2023-05-08T19:22:09.548Z,91583.88
2023-05-08T19:24:36.376Z,91584.28
2023-05-08T19:27:03.005Z,91588.41
2023-05-08T19:29:29.799Z,91587.72
2023-05-08T19:31:56.667Z,91581.94
2023-05-08T19:34:23.932Z,91589.50
2023-05-08T19:36:51.415Z,91587.59
2023-05-08T19:39:18.125Z,91592.81
2023-05-08T19:41:45.080Z,91592.44
2023-05-08T19:44:11.930Z,91593.53
2023-05-08T19:46:39.075Z,91599.59
2023-05-08T19:49:05.980Z,91608.72
2023-05-08T19:51:33.170Z,91598.91
2023-05-08T19:53:59.867Z,91591.31
2023-05-08T19:56:26.536Z,91592.16
2023-05-08T19:58:53.342Z,91595.16
2023-05-08T20:01:20.053Z,91592.88
2023-05-08T20:03:46.950Z,91586.84
2023-05-08T20:06:13.967Z,91592.50
2023-05-08T20:08:40.627Z,91598.19
2023-05-08T20:11:09.429Z,91588.41
2023-05-08T20:13:36.142Z,91584.25
2023-05-08T20:16:02.847Z,91589.06
2023-05-08T20:18:29.584Z,91587.63
2023-05-08T20:20:56.757Z,91583.19
2023-05-08T20:23:23.471Z,91588.44
2023-05-08T20:25:50.124Z,91577.19
2023-05-08T20:28:22.271Z,91570.44
2023-05-08T20:30:49.717Z,91572.34
2023-05-08T20:33:16.749Z,91571.19
2023-05-08T20:35:43.445Z,91563.28
2023-05-08T20:38:10.130Z,91559.88
2023-05-08T20:40:37.174Z,91557.53
2023-05-08T20:43:03.899Z,91564.53
2023-05-08T20:45:30.596Z,91566.31
2023-05-08T20:47:57.396Z,91577.56
2023-05-08T20:50:24.458Z,91568.28
2023-05-08T20:52:51.814Z,91562.69
2023-05-08T20:55:18.632Z,91559.72
2023-05-08T20:57:45.326Z,91554.44
2023-05-08T21:00:12.507Z,91548.13
2023-05-08T21:02:41.311Z,91545.16
2023-05-08T21:05:09.255Z,91545.50
2023-05-08T21:07:36.257Z,91550.72
2023-05-08T21:10:04.387Z,91549.97
2023-05-08T21:12:31.102Z,91547.31
2023-05-08T21:14:57.720Z,91548.88
2023-05-08T21:17:24.391Z,91551.06
2023-05-08T21:19:51.182Z,91550.59
2023-05-08T21:22:17.983Z,91547.66
2023-05-08T21:24:44.717Z,91543.09
2023-05-08T21:27:11.466Z,91543.13
2023-05-08T21:29:38.405Z,91555.13
2023-05-08T21:32:05.996Z,91558.06
2023-05-08T21:34:33.673Z,91561.47
2023-05-08T21:37:00.536Z,91552.72
2023-05-08T21:39:27.170Z,91562.91
2023-05-08T21:41:53.922Z,91555.09
2023-05-08T21:44:20.883Z,91559.59
2023-05-08T21:46:47.601Z,91564.91
2023-05-08T21:49:14.378Z,91555.13
2023-05-08T21:51:41.066Z,91558.09
2023-05-08T21:54:09.020Z,91549.81
2023-05-08T21:56:35.726Z,91556.66
2023-05-08T21:59:02.377Z,91553.66
2023-05-08T22:01:29.736Z,91556.69
2023-05-08T22:03:56.705Z,91554.09
2023-05-08T22:06:23.548Z,91546.19
2023-05-08T22:08:50.321Z,91553.31
2023-05-08T22:11:17.072Z,91546.94
2023-05-08T22:13:43.734Z,91555.25
2023-05-08T22:16:10.495Z,91549.94
2023-05-08T22:18:37.244Z,91553.28
2023-05-08T22:21:04.135Z,91555.56
2023-05-08T22:23:30.785Z,91558.22
2023-05-08T22:25:57.549Z,91555.84
2023-05-08T22:28:24.181Z,91555.09
2023-05-08T22:30:50.815Z,91562.97
2023-05-08T22:33:17.498Z,91558.13
2023-05-08T22:35:44.198Z,91566.03
2023-05-08T22:38:10.802Z,91561.53
2023-05-08T22:40:37.578Z,91571.59
2023-05-08T22:43:04.330Z,91558.03
2023-05-08T22:45:32.275Z,91560.00
2023-05-08T22:47:59.350Z,91559.19
2023-05-08T22:50:26.158Z,91567.84
2023-05-08T22:52:52.834Z,91570.88
2023-05-08T22:55:19.536Z,91569.84
2023-05-08T22:57:46.194Z,91566.06
2023-05-08T23:00:13.293Z,91567.53
2023-05-08T23:02:40.139Z,91564.84
2023-05-08T23:05:07.661Z,91567.47
2023-05-08T23:07:34.301Z,91570.03
2023-05-08T23:10:00.940Z,91568.56
2023-05-08T23:12:27.621Z,91560.22
2023-05-08T23:14:54.269Z,91568.53
2023-05-08T23:17:21.117Z,91561.72
2023-05-08T23:19:47.908Z,91568.78
2023-05-08T23:22:14.563Z,91557.09
2023-05-08T23:24:41.380Z,91555.59
2023-05-08T23:27:08.130Z,91564.59
2023-05-08T23:29:34.762Z,91557.81
2023-05-08T23:32:01.403Z,91561.88
2023-05-08T23:34:28.064Z,91559.94
2023-05-08T23:36:54.705Z,91563.28
2023-05-08T23:39:21.404Z,91559.81
2023-05-08T23:41:48.082Z,91569.28
2023-05-08T23:44:15.488Z,91571.06
2023-05-08T23:46:42.588Z,91561.41
2023-05-08T23:49:09.300Z,91564.38
2023-05-08T23:51:35.994Z,91565.44
2023-05-08T23:54:03.386Z,91561.69
2023-05-08T23:56:30.914Z,91564.75
2023-05-08T23:58:57.561Z,91562.03
